Time;durP1;ratioP1;P1;durP2;ratioP2;P2;SDS_P1;SDS_P2;PMS_P1;PMS_P2;Temp;Humidity;BMP_temperature;BMP_pressure;BME280_temperature;BME280_humidity;BME280_pressure;Samples;Min_cycle;Max_cycle;Signal;HPM_P1;HPM_P2
2022/10/14 00:00:00;;;;;;;74.18;24.48;;;13.60;99.90;;;;;;4992602;28;20025;-84
2022/10/14 00:02:25;;;;;;;221.13;26.77;;;13.60;99.90;;;;;;4982174;28;20157;-83
2022/10/14 00:04:51;;;;;;;84.35;24.58;;;13.60;99.90;;;;;;5016057;28;20033;-84
2022/10/14 00:07:16;;;;;;;91.55;21.98;;;13.50;99.90;;;;;;4998430;28;20085;-83
2022/10/14 00:09:42;;;;;;;94.63;23.20;;;13.50;99.90;;;;;;4998863;28;20125;-84
2022/10/14 00:12:08;;;;;;;163.23;21.17;;;13.50;99.90;;;;;;4981006;28;20535;-83
2022/10/14 00:14:33;;;;;;;59.60;20.58;;;13.40;99.90;;;;;;4991280;28;20556;-83
2022/10/14 00:16:59;;;;;;;157.52;23.92;;;13.40;99.90;;;;;;4975966;28;20030;-84
2022/10/14 00:19:25;;;;;;;182.95;20.95;;;13.40;99.90;;;;;;4968260;28;20483;-83
2022/10/14 00:21:50;;;;;;;166.80;20.58;;;13.40;99.90;;;;;;4989965;28;20164;-83
2022/10/14 00:24:17;;;;;;;48.63;19.92;;;13.30;99.90;;;;;;4992262;28;20026;-84
2022/10/14 00:26:43;;;;;;;44.25;19.98;;;13.30;99.90;;;;;;5010913;28;20380;-83
2022/10/14 00:29:13;;;;;;;68.05;21.02;;;13.30;99.90;;;;;;4990228;28;20022;-83
2022/10/14 00:31:39;;;;;;;45.60;19.88;;;13.30;99.90;;;;;;5015673;28;20041;-83
2022/10/14 00:34:05;;;;;;;66.07;20.73;;;13.30;99.90;;;;;;4992429;28;20023;-84
2022/10/14 00:36:31;;;;;;;79.35;18.52;;;13.30;99.90;;;;;;4991584;28;20029;-83
2022/10/14 00:38:56;;;;;;;69.93;19.45;;;13.30;99.90;;;;;;4968086;28;20054;-82
2022/10/14 00:41:28;;;;;;;65.05;18.60;;;13.30;99.90;;;;;;4975947;28;20044;-83
2022/10/14 00:43:55;;;;;;;140.10;18.73;;;13.20;99.90;;;;;;5026013;28;20040;-83
2022/10/14 00:46:23;;;;;;;109.20;16.25;;;13.20;99.90;;;;;;5016098;28;20018;-83
2022/10/14 00:48:49;;;;;;;62.17;16.63;;;13.10;99.90;;;;;;5016929;28;20041;-82
2022/10/14 00:51:15;;;;;;;90.47;14.68;;;13.10;99.90;;;;;;5017211;28;20041;-83
2022/10/14 00:53:43;;;;;;;84.28;16.23;;;13.00;99.90;;;;;;5034825;28;20446;-83
2022/10/14 00:56:10;;;;;;;93.13;13.98;;;13.00;99.90;;;;;;5004671;28;20033;-83
2022/10/14 00:58:37;;;;;;;131.65;14.73;;;12.90;99.90;;;;;;5011202;28;20026;-83
2022/10/14 01:01:02;;;;;;;67.10;14.85;;;12.90;99.90;;;;;;5024513;28;20036;-83
2022/10/14 01:03:28;;;;;;;59.60;16.15;;;12.90;99.90;;;;;;5012834;28;20026;-83
2022/10/14 01:06:10;;;;;;;79.32;15.57;;;12.80;99.90;;;;;;5016844;28;20035;-83
2022/10/14 01:08:42;;;;;;;57.80;17.17;;;12.80;99.90;;;;;;5016318;28;20013;-84
2022/10/14 01:11:16;;;;;;;78.55;17.90;;;12.80;99.90;;;;;;5034851;28;20021;-83
2022/10/14 01:13:58;;;;;;;26.13;15.77;;;12.70;99.90;;;;;;5034457;28;20421;-83
2022/10/14 01:16:30;;;;;;;53.00;17.60;;;12.70;99.90;;;;;;5016787;28;20475;-83
2022/10/14 01:19:23;;;;;;;28.75;17.25;;;12.70;99.90;;;;;;5016607;28;20095;-83
2022/10/14 01:22:23;;;;;;;47.17;17.50;;;12.70;99.90;;;;;;5003769;28;20030;-84
2022/10/14 01:25:09;;;;;;;48.70;18.98;;;12.80;99.90;;;;;;5012613;28;20048;-84
2022/10/14 01:28:13;;;;;;;31.55;17.80;;;12.80;99.90;;;;;;5016391;28;20076;-84
2022/10/14 01:30:55;;;;;;;33.28;17.25;;;12.80;99.90;;;;;;5014591;28;20026;-84
2022/10/14 01:33:42;;;;;;;32.42;17.55;;;12.80;99.90;;;;;;5006636;28;20017;-83
2022/10/14 01:36:28;;;;;;;36.30;17.65;;;12.80;99.90;;;;;;5016193;28;20040;-83
2022/10/14 01:39:14;;;;;;;38.90;17.23;;;12.90;99.90;;;;;;5034211;28;20100;-83
2022/10/14 01:42:07;;;;;;;38.20;17.27;;;12.90;99.90;;;;;;5004939;28;20033;-83
2022/10/14 01:44:37;;;;;;;32.10;17.83;;;12.90;99.90;;;;;;5015693;28;20079;-84
2022/10/14 01:47:05;;;;;;;33.70;18.10;;;12.90;99.90;;;;;;5023324;28;20021;-83
2022/10/14 01:49:38;;;;;;;34.35;18.17;;;12.90;99.90;;;;;;5030911;28;20088;-83
2022/10/14 01:52:21;;;;;;;33.95;18.25;;;13.00;99.90;;;;;;5033869;28;20047;-83
2022/10/14 01:54:50;;;;;;;34.78;19.52;;;13.00;99.90;;;;;;5033683;28;20017;-82
2022/10/14 01:57:22;;;;;;;34.90;18.48;;;13.00;99.90;;;;;;5015971;28;20474;-83
2022/10/14 01:59:50;;;;;;;37.63;18.90;;;13.00;99.90;;;;;;5015614;28;20024;-83
2022/10/14 02:02:22;;;;;;;41.20;19.80;;;13.00;99.90;;;;;;5033540;28;20106;-83
2022/10/14 02:04:48;;;;;;;42.15;20.83;;;13.00;99.90;;;;;;5033466;28;20025;-83
2022/10/14 02:07:32;;;;;;;42.20;21.13;;;13.00;99.90;;;;;;4999587;28;20026;-84
2022/10/14 02:10:15;;;;;;;45.42;20.30;;;13.00;99.90;;;;;;5033694;28;20017;-84
2022/10/14 02:13:08;;;;;;;44.17;20.67;;;13.00;99.90;;;;;;5033483;28;20026;-84
2022/10/14 02:15:37;;;;;;;35.83;19.42;;;13.00;99.90;;;;;;5033305;28;20128;-84
2022/10/14 02:18:13;;;;;;;38.75;19.73;;;13.00;99.90;;;;;;5015731;28;20025;-83
2022/10/14 02:20:57;;;;;;;39.60;21.35;;;13.10;99.90;;;;;;4996250;28;20495;-84
2022/10/14 02:23:29;;;;;;;39.22;19.63;;;13.00;99.90;;;;;;5027030;28;20603;-83
2022/10/14 02:25:55;;;;;;;39.30;19.73;;;13.10;99.90;;;;;;5033355;28;20022;-83
2022/10/14 02:28:24;;;;;;;39.17;19.00;;;13.00;99.90;;;;;;4999331;28;20116;-83
2022/10/14 02:30:59;;;;;;;41.17;20.92;;;13.10;99.90;;;;;;5015690;28;20018;-84
2022/10/14 02:33:35;;;;;;;40.17;20.42;;;13.10;99.90;;;;;;5015741;28;20022;-83
2022/10/14 02:36:06;;;;;;;41.15;20.95;;;13.10;99.90;;;;;;5032910;28;20538;-84
2022/10/14 02:38:33;;;;;;;44.05;21.67;;;13.10;99.90;;;;;;5032566;28;20049;-84
2022/10/14 02:41:01;;;;;;;63.28;22.80;;;13.10;99.90;;;;;;5033184;28;20022;-84
2022/10/14 02:43:28;;;;;;;47.95;22.27;;;13.10;99.90;;;;;;5015171;28;20095;-83
2022/10/14 02:45:59;;;;;;;51.22;23.83;;;13.10;99.90;;;;;;5015486;28;20491;-83
2022/10/14 02:48:25;;;;;;;51.83;23.92;;;13.10;99.90;;;;;;5033145;28;20471;-84
2022/10/14 02:50:50;;;;;;;50.33;23.77;;;13.10;99.90;;;;;;5015548;28;20025;-84
2022/10/14 02:53:16;;;;;;;52.13;24.77;;;13.10;99.90;;;;;;5015281;28;20030;-84
2022/10/14 02:55:42;;;;;;;52.30;26.13;;;13.10;99.90;;;;;;4995843;28;20471;-84
2022/10/14 02:58:08;;;;;;;52.05;25.92;;;13.10;99.90;;;;;;5008315;28;20025;-84
2022/10/14 03:00:34;;;;;;;55.70;26.77;;;13.10;99.90;;;;;;5014550;28;20026;-84
2022/10/14 03:03:00;;;;;;;58.20;26.98;;;13.10;99.90;;;;;;5024102;28;20029;-84
2022/10/14 03:05:25;;;;;;;63.33;27.45;;;13.10;99.90;;;;;;5012060;28;20034;-85
2022/10/14 03:07:51;;;;;;;57.15;27.10;;;13.10;99.90;;;;;;5004425;28;20475;-84
2022/10/14 03:10:17;;;;;;;76.63;29.27;;;13.10;99.90;;;;;;5014717;28;20037;-84
2022/10/14 03:12:42;;;;;;;68.78;28.88;;;13.10;99.90;;;;;;5015275;28;20041;-85
2022/10/14 03:15:09;;;;;;;60.10;26.83;;;13.10;99.90;;;;;;5015008;28;20108;-85
2022/10/14 03:17:35;;;;;;;60.65;28.02;;;13.10;99.90;;;;;;5019011;28;20021;-83
2022/10/14 03:20:02;;;;;;;58.72;27.25;;;13.10;99.90;;;;;;5015258;28;20104;-84
2022/10/14 03:22:28;;;;;;;67.68;28.60;;;13.10;99.90;;;;;;5005833;28;20026;-83
2022/10/14 03:24:53;;;;;;;71.35;29.75;;;13.10;99.90;;;;;;4993138;28;20120;-84
2022/10/14 03:27:19;;;;;;;68.03;29.88;;;13.10;99.90;;;;;;5013569;28;20471;-83
2022/10/14 03:29:44;;;;;;;68.70;29.45;;;13.10;99.90;;;;;;4979364;28;20484;-84
2022/10/14 03:32:10;;;;;;;69.95;30.13;;;13.10;99.90;;;;;;4996152;28;20030;-84
2022/10/14 03:34:36;;;;;;;65.80;28.95;;;13.10;99.90;;;;;;4984644;28;20033;-84
2022/10/14 03:37:01;;;;;;;66.78;28.67;;;13.10;99.90;;;;;;5018705;28;20136;-84
2022/10/14 03:39:27;;;;;;;66.45;29.63;;;13.10;99.90;;;;;;4985056;28;20065;-84
2022/10/14 03:41:53;;;;;;;69.85;30.17;;;13.20;99.90;;;;;;4999156;28;20537;-85
2022/10/14 03:44:18;;;;;;;67.10;30.63;;;13.20;99.90;;;;;;4995636;28;20185;-83
2022/10/14 03:46:44;;;;;;;78.68;31.27;;;13.10;99.90;;;;;;4998645;28;20156;-83
2022/10/14 03:49:09;;;;;;;68.45;30.45;;;13.20;99.90;;;;;;4997613;28;20064;-83
2022/10/14 03:51:35;;;;;;;77.95;30.63;;;13.10;99.90;;;;;;4998600;28;20066;-85
2022/10/14 03:54:01;;;;;;;63.97;28.60;;;13.20;99.90;;;;;;4982512;28;20030;-84
2022/10/14 03:56:26;;;;;;;73.30;30.95;;;13.20;99.90;;;;;;5012096;28;20030;-84
2022/10/14 03:58:52;;;;;;;67.82;29.92;;;13.20;99.90;;;;;;4994405;28;20105;-84
2022/10/14 04:01:18;;;;;;;72.70;31.67;;;13.20;99.90;;;;;;4982461;28;20032;-84
2022/10/14 04:03:45;;;;;;;70.50;29.45;;;13.20;99.90;;;;;;4982376;28;20116;-83
2022/10/14 04:06:15;;;;;;;73.88;31.77;;;13.20;99.90;;;;;;4994847;28;20497;-83
2022/10/14 04:08:41;;;;;;;75.28;30.88;;;13.20;99.90;;;;;;5008170;28;20026;-84
2022/10/14 04:11:07;;;;;;;71.40;31.80;;;13.20;99.90;;;;;;4998315;28;20025;-83
2022/10/14 04:13:33;;;;;;;59.95;28.20;;;13.20;99.90;;;;;;4988580;28;20105;-84
2022/10/14 04:16:03;;;;;;;74.40;32.42;;;13.20;99.90;;;;;;5004492;28;20487;-83
2022/10/14 04:18:29;;;;;;;71.20;31.20;;;13.30;99.90;;;;;;4994936;28;20122;-83
2022/10/14 04:20:58;;;;;;;68.45;29.63;;;13.30;99.90;;;;;;4990711;28;20124;-84
2022/10/14 04:23:23;;;;;;;78.72;33.22;;;13.30;99.90;;;;;;4978566;28;20101;-84
2022/10/14 04:25:49;;;;;;;74.57;32.47;;;13.30;99.90;;;;;;4978830;28;20483;-83
2022/10/14 04:28:15;;;;;;;68.50;31.73;;;13.30;99.90;;;;;;5014414;28;20024;-83
2022/10/14 04:30:41;;;;;;;71.30;31.90;;;13.30;99.90;;;;;;5029202;28;20014;-83
2022/10/14 04:33:06;;;;;;;70.07;31.70;;;13.30;99.90;;;;;;5001805;28;20041;-83
2022/10/14 04:35:32;;;;;;;72.43;31.10;;;13.30;99.90;;;;;;5001978;28;20480;-83
2022/10/14 04:37:58;;;;;;;63.97;30.00;;;13.30;99.90;;;;;;4982357;28;20029;-83
2022/10/14 04:40:25;;;;;;;68.85;33.30;;;13.30;99.90;;;;;;4997616;28;20054;-84
2022/10/14 04:42:55;;;;;;;68.40;32.03;;;13.30;99.90;;;;;;4997367;28;20058;-83
2022/10/14 04:45:28;;;;;;;69.80;32.43;;;13.30;99.90;;;;;;5008766;28;20023;-85
2022/10/14 04:47:54;;;;;;;72.88;32.13;;;13.40;99.90;;;;;;4990225;28;20038;-84
2022/10/14 04:50:19;;;;;;;71.22;32.63;;;13.30;99.90;;;;;;5011157;28;20037;-84
2022/10/14 04:52:46;;;;;;;75.68;33.25;;;13.30;99.90;;;;;;4987368;28;20022;-82
2022/10/14 04:55:11;;;;;;;75.40;31.77;;;13.40;99.90;;;;;;4977064;28;20038;-82
2022/10/14 04:57:43;;;;;;;92.57;36.42;;;13.40;99.90;;;;;;4996080;23;20016;-84
2022/10/14 05:00:11;;;;;;;77.40;34.45;;;13.40;99.90;;;;;;5036914;28;20033;-84
2022/10/14 05:02:36;;;;;;;80.38;34.78;;;13.40;99.90;;;;;;5023793;28;20348;-84
2022/10/14 05:05:03;;;;;;;74.32;33.42;;;13.40;99.90;;;;;;5037100;28;20040;-85
2022/10/14 05:07:28;;;;;;;72.53;33.42;;;13.40;99.90;;;;;;5036669;28;20032;-85
2022/10/14 05:09:54;;;;;;;79.43;34.60;;;13.40;99.90;;;;;;5017355;28;20017;-84
2022/10/14 05:12:20;;;;;;;70.57;33.95;;;13.40;99.90;;;;;;5013599;28;20021;-84
2022/10/14 05:14:45;;;;;;;69.40;33.00;;;13.40;99.90;;;;;;5011043;28;20025;-85
2022/10/14 05:17:11;;;;;;;72.22;32.80;;;13.40;99.90;;;;;;5030701;28;20385;-84
2022/10/14 05:19:36;;;;;;;65.57;33.33;;;13.40;99.90;;;;;;5006915;28;20035;-84
2022/10/14 05:22:02;;;;;;;66.75;32.95;;;13.40;99.90;;;;;;5054324;28;20033;-84
2022/10/14 05:25:16;;;;;;;74.38;34.45;;;13.50;99.90;;;;;;5036354;28;20048;-84
2022/10/14 05:27:42;;;;;;;72.78;34.20;;;13.40;99.90;;;;;;5036222;28;20339;-84
2022/10/14 05:30:09;;;;;;;60.30;31.67;;;13.40;99.90;;;;;;5036432;28;20021;-85
2022/10/14 05:32:34;;;;;;;53.90;30.13;;;13.50;99.90;;;;;;5036174;28;20502;-85
2022/10/14 05:35:00;;;;;;;58.30;30.70;;;13.50;99.90;;;;;;5020075;28;20044;-84
2022/10/14 05:37:26;;;;;;;50.65;28.85;;;13.50;99.90;;;;;;5036523;28;20033;-85
2022/10/14 05:39:51;;;;;;;44.47;27.85;;;13.50;99.90;;;;;;5014744;28;20029;-85
2022/10/14 05:42:17;;;;;;;47.67;28.00;;;13.50;99.90;;;;;;5016418;28;20030;-85
2022/10/14 05:44:43;;;;;;;46.67;28.45;;;13.50;99.90;;;;;;5002992;28;20047;-85
2022/10/14 05:47:09;;;;;;;46.65;26.15;;;13.60;99.90;;;;;;5010404;28;20087;-84
2022/10/14 05:49:35;;;;;;;43.67;26.83;;;13.60;99.90;;;;;;5031320;28;20025;-85
2022/10/14 05:52:00;;;;;;;39.90;25.70;;;13.60;99.90;;;;;;5020106;28;20379;-85
2022/10/14 05:54:26;;;;;;;38.38;26.15;;;13.60;99.90;;;;;;5016365;28;20033;-85
2022/10/14 05:56:52;;;;;;;43.00;26.35;;;13.60;99.90;;;;;;5052722;28;20032;-85
2022/10/14 05:59:18;;;;;;;37.70;25.52;;;13.60;99.90;;;;;;5025414;28;20376;-85
2022/10/14 06:01:44;;;;;;;41.05;25.00;;;13.60;99.90;;;;;;5029692;28;20486;-85
2022/10/14 06:04:18;;;;;;;44.03;27.70;;;13.60;99.90;;;;;;5035600;28;20029;-85
2022/10/14 06:06:45;;;;;;;44.60;26.83;;;13.70;99.90;;;;;;5041843;28;20056;-85
2022/10/14 06:09:11;;;;;;;39.15;25.45;;;13.70;99.90;;;;;;5018196;28;20035;-85
2022/10/14 06:11:36;;;;;;;40.22;26.02;;;13.70;99.90;;;;;;5003282;28;20037;-85
2022/10/14 06:14:02;;;;;;;39.05;25.73;;;13.70;99.90;;;;;;5053330;28;20032;-85
2022/10/14 06:16:28;;;;;;;36.13;23.38;;;13.80;99.90;;;;;;5019326;28;20052;-85
2022/10/14 06:18:53;;;;;;;37.95;23.40;;;13.70;99.90;;;;;;5019283;28;20079;-85
2022/10/14 06:21:19;;;;;;;36.50;23.48;;;13.80;99.90;;;;;;5012656;28;20509;-84
2022/10/14 06:23:45;;;;;;;36.55;24.80;;;13.80;99.90;;;;;;5012303;28;20120;-84
2022/10/14 06:26:10;;;;;;;40.85;27.35;;;13.80;99.90;;;;;;5050702;28;20036;-84
2022/10/14 06:28:36;;;;;;;36.70;23.67;;;13.80;99.90;;;;;;5035622;28;20025;-84
2022/10/14 06:31:02;;;;;;;35.35;24.17;;;13.80;99.90;;;;;;5018995;28;20470;-84
2022/10/14 06:33:28;;;;;;;36.30;23.75;;;13.80;99.90;;;;;;5035476;28;20024;-84
2022/10/14 06:35:55;;;;;;;33.08;23.98;;;13.90;99.90;;;;;;5018964;28;20394;-84
2022/10/14 06:38:21;;;;;;;37.08;24.25;;;13.90;99.90;;;;;;5035517;28;20029;-84
2022/10/14 06:40:53;;;;;;;37.58;25.65;;;13.90;99.90;;;;;;5035238;28;20131;-84
2022/10/14 06:43:20;;;;;;;37.97;25.40;;;13.90;99.90;;;;;;5027248;28;20038;-85
2022/10/14 06:45:46;;;;;;;46.53;26.15;;;13.90;99.90;;;;;;5058835;28;20056;-84
2022/10/14 06:48:12;;;;;;;45.13;26.17;;;13.90;99.90;;;;;;5020098;28;20034;-85
2022/10/14 06:50:38;;;;;;;43.35;26.45;;;14.00;99.90;;;;;;5028188;28;20036;-85
2022/10/14 06:53:04;;;;;;;36.72;24.33;;;13.90;99.90;;;;;;5030163;28;20025;-86
2022/10/14 06:55:30;;;;;;;38.10;25.08;;;14.00;99.90;;;;;;5053221;28;20025;-85
2022/10/14 06:57:55;;;;;;;45.42;26.85;;;14.00;99.90;;;;;;5027678;28;20045;-85
2022/10/14 07:00:23;;;;;;;43.42;26.02;;;14.00;99.90;;;;;;5007836;28;20021;-85
2022/10/14 07:02:48;;;;;;;45.63;26.92;;;14.00;99.90;;;;;;5018801;28;20037;-85
2022/10/14 07:05:14;;;;;;;45.72;26.77;;;14.00;99.90;;;;;;5040485;28;20037;-85
2022/10/14 07:07:40;;;;;;;40.83;23.90;;;14.00;99.90;;;;;;5030349;28;20100;-85
2022/10/14 07:10:06;;;;;;;44.33;25.38;;;14.00;99.90;;;;;;5031684;28;20025;-85
2022/10/14 07:12:31;;;;;;;47.42;26.83;;;14.10;99.90;;;;;;5005247;28;20022;-85
2022/10/14 07:14:57;;;;;;;33.80;23.02;;;14.10;99.90;;;;;;4993478;28;20037;-85
2022/10/14 07:17:23;;;;;;;33.33;22.00;;;14.10;99.90;;;;;;5053223;28;20029;-86
2022/10/14 07:19:48;;;;;;;35.28;22.75;;;14.10;99.90;;;;;;5024083;28;20033;-85
2022/10/14 07:22:16;;;;;;;50.17;24.48;;;14.20;99.90;;;;;;4992507;28;20172;-86
2022/10/14 07:24:42;;;;;;;32.53;21.83;;;14.20;99.90;;;;;;5038919;28;20498;-86
2022/10/14 07:27:09;;;;;;;36.80;21.30;;;14.20;99.90;;;;;;5010128;28;20034;-86
2022/10/14 07:29:35;;;;;;;33.28;20.70;;;14.20;99.90;;;;;;5036820;28;20014;-86
2022/10/14 07:32:01;;;;;;;38.60;22.10;;;14.20;99.90;;;;;;5037217;28;20371;-86
2022/10/14 07:34:26;;;;;;;38.25;22.05;;;14.20;99.90;;;;;;5035920;28;20025;-86
2022/10/14 07:36:52;;;;;;;34.75;19.02;;;14.20;99.90;;;;;;5038882;28;20040;-85
2022/10/14 07:39:18;;;;;;;35.72;22.27;;;14.30;99.90;;;;;;5006559;28;20032;-85
2022/10/14 07:41:44;;;;;;;47.38;28.58;;;14.30;99.90;;;;;;5052772;28;20021;-86
2022/10/14 07:44:12;;;;;;;38.03;23.88;;;14.30;99.90;;;;;;5026440;28;20037;-86
2022/10/14 07:46:41;;;;;;;33.58;23.17;;;14.30;99.90;;;;;;5056812;28;20013;-86
2022/10/14 07:49:12;;;;;;;38.60;23.10;;;14.30;99.90;;;;;;5025251;28;20017;-86
2022/10/14 07:51:39;;;;;;;35.92;22.92;;;14.30;99.90;;;;;;5040414;28;20029;-86
2022/10/14 07:54:10;;;;;;;35.97;22.13;;;14.30;99.90;;;;;;5021997;28;20013;-85
2022/10/14 07:56:37;;;;;;;29.67;21.08;;;14.40;99.90;;;;;;5052563;28;20053;-85
2022/10/14 07:59:03;;;;;;;28.83;18.15;;;14.40;99.90;;;;;;5041233;28;20032;-85
2022/10/14 08:01:29;;;;;;;35.25;20.17;;;14.40;99.90;;;;;;5010577;28;20398;-85
2022/10/14 08:03:55;;;;;;;32.97;19.60;;;14.40;99.90;;;;;;5021523;28;20106;-85
2022/10/14 08:06:21;;;;;;;33.40;19.42;;;14.40;99.90;;;;;;5046405;28;20030;-83
2022/10/14 08:08:47;;;;;;;35.85;20.77;;;14.40;99.90;;;;;;5003553;28;20034;-84
2022/10/14 08:11:16;;;;;;;26.42;17.30;;;14.40;99.90;;;;;;5021800;28;20542;-84
2022/10/14 08:13:45;;;;;;;25.98;17.30;;;14.50;99.90;;;;;;5056039;28;20025;-84
2022/10/14 08:16:16;;;;;;;34.03;20.05;;;14.50;99.90;;;;;;5042453;28;20028;-84
2022/10/14 08:18:43;;;;;;;31.23;17.95;;;14.50;99.90;;;;;;5038143;28;20032;-84
2022/10/14 08:21:09;;;;;;;28.95;17.80;;;14.50;99.90;;;;;;5052018;28;20029;-84
2022/10/14 08:23:34;;;;;;;26.38;17.33;;;14.60;99.90;;;;;;5038337;28;20033;-84
2022/10/14 08:26:00;;;;;;;29.15;17.65;;;14.60;99.90;;;;;;5018616;28;20025;-84
2022/10/14 08:28:26;;;;;;;24.13;14.93;;;14.60;99.90;;;;;;5029136;28;20403;-84
2022/10/14 08:30:52;;;;;;;26.13;16.95;;;14.60;99.90;;;;;;5052932;28;20504;-84
2022/10/14 08:33:18;;;;;;;23.25;16.08;;;14.60;99.90;;;;;;5028084;28;20022;-84
2022/10/14 08:35:44;;;;;;;25.02;16.27;;;14.60;99.90;;;;;;5045679;28;20032;-84
2022/10/14 08:38:10;;;;;;;27.75;17.10;;;14.60;99.90;;;;;;5041837;28;20029;-84
2022/10/14 08:40:56;;;;;;;21.20;15.20;;;14.70;99.90;;;;;;5038116;28;20025;-84
2022/10/14 08:43:45;;;;;;;23.83;16.52;;;14.70;99.90;;;;;;5040901;28;20040;-84
2022/10/14 08:46:18;;;;;;;21.73;14.98;;;14.70;99.90;;;;;;5008986;28;20120;-84
2022/10/14 08:48:45;;;;;;;27.00;17.17;;;14.70;99.90;;;;;;5037305;28;20021;-84
2022/10/14 08:51:16;;;;;;;26.48;17.58;;;14.80;99.90;;;;;;5037440;28;20085;-85
2022/10/14 08:53:48;;;;;;;;;;;14.70;99.90;;;;;;5037632;28;20099;-85
2022/10/14 08:56:14;;;;;;;24.52;16.42;;;14.80;99.90;;;;;;5039822;28;19905;-84
2022/10/14 08:58:47;;;;;;;25.05;16.92;;;14.70;99.90;;;;;;5033271;28;20044;-84
2022/10/14 09:01:30;;;;;;;24.38;16.02;;;14.80;99.90;;;;;;5037764;28;20092;-85
2022/10/14 09:03:58;;;;;;;29.38;17.60;;;14.80;99.90;;;;;;5023249;28;20087;-85
2022/10/14 09:06:26;;;;;;;26.15;16.20;;;14.80;99.90;;;;;;5037049;28;20048;-85
2022/10/14 09:08:57;;;;;;;21.95;14.70;;;14.80;99.90;;;;;;5036991;28;20029;-84
2022/10/14 09:11:24;;;;;;;26.58;17.42;;;14.80;99.90;;;;;;5029491;28;20531;-85
2022/10/14 09:13:57;;;;;;;27.65;17.65;;;14.80;99.90;;;;;;5001487;28;20029;-85
2022/10/14 09:16:34;;;;;;;20.33;14.50;;;14.90;99.90;;;;;;5037272;28;20017;-85
2022/10/14 09:19:52;;;;;;;24.10;16.67;;;14.90;99.90;;;;;;5007995;28;20033;-85
2022/10/14 09:22:18;;;;;;;21.70;15.82;;;14.90;99.90;;;;;;5014116;28;20029;-85
2022/10/14 09:24:47;;;;;;;27.30;18.05;;;14.90;99.90;;;;;;5057678;28;20021;-84
2022/10/14 09:27:20;;;;;;;27.98;17.73;;;14.90;99.90;;;;;;4992886;28;20041;-86
2022/10/14 09:29:49;;;;;;;20.80;15.73;;;14.90;99.90;;;;;;5042663;28;20021;-86
2022/10/14 09:32:39;;;;;;;21.88;16.30;;;14.90;99.90;;;;;;5054866;28;20023;-86
2022/10/14 09:35:17;;;;;;;22.47;15.70;;;15.00;99.90;;;;;;5035855;28;20029;-85
2022/10/14 09:37:42;;;;;;;21.27;14.98;;;15.00;99.90;;;;;;5040023;28;20106;-86
2022/10/14 09:40:08;;;;;;;19.52;15.07;;;15.00;99.90;;;;;;5020089;28;20478;-86
2022/10/14 09:42:43;;;;;;;17.75;14.05;;;15.00;99.90;;;;;;5037332;28;20029;-86
2022/10/14 09:45:12;;;;;;;21.08;15.50;;;15.10;99.90;;;;;;5041147;28;20493;-86
2022/10/14 09:48:06;;;;;;;24.67;17.23;;;15.10;99.90;;;;;;5037350;28;20033;-86
2022/10/14 09:50:39;;;;;;;22.15;16.70;;;15.10;99.90;;;;;;5036059;28;20021;-86
2022/10/14 09:53:35;;;;;;;21.48;15.30;;;15.10;99.90;;;;;;5053905;28;20068;-86
2022/10/14 09:56:04;;;;;;;23.45;15.85;;;15.10;99.90;;;;;;5054268;28;20021;-86
2022/10/14 09:58:56;;;;;;;19.52;14.52;;;15.20;99.90;;;;;;5035816;28;20037;-87
2022/10/14 10:01:24;;;;;;;18.17;14.30;;;15.20;99.90;;;;;;5053832;28;20021;-87
2022/10/14 10:03:51;;;;;;;19.80;14.52;;;15.20;99.90;;;;;;5022054;28;20371;-87
2022/10/14 10:06:24;;;;;;;17.33;14.20;;;15.20;99.90;;;;;;5035668;28;20505;-86
2022/10/14 10:08:53;;;;;;;17.13;14.27;;;15.20;99.90;;;;;;5035908;28;20023;-87
2022/10/14 10:11:29;;;;;;;18.17;15.02;;;15.30;99.90;;;;;;5035912;28;20116;-85
2022/10/14 10:13:55;;;;;;;18.55;14.07;;;15.30;99.90;;;;;;5039463;28;20026;-86
2022/10/14 10:16:33;;;;;;;17.33;14.18;;;15.30;99.90;;;;;;5036016;28;20079;-86
2022/10/14 10:19:31;;;;;;;20.85;14.77;;;15.30;99.90;;;;;;5035680;28;20029;-86
2022/10/14 10:22:21;;;;;;;17.33;12.98;;;15.30;99.90;;;;;;5036175;28;20359;-87
2022/10/14 10:25:13;;;;;;;16.10;12.50;;;15.40;99.90;;;;;;5016978;28;20541;-86
2022/10/14 10:27:44;;;;;;;16.83;14.05;;;15.40;99.90;;;;;;5053324;28;20035;-86
2022/10/14 10:30:16;;;;;;;;;;;15.40;99.90;;;;;;5036120;28;20108;-86
2022/10/14 10:32:50;;;;;;;18.02;13.90;;;15.40;99.90;;;;;;5053583;28;19908;-86
2022/10/14 10:35:38;;;;;;;15.13;12.02;;;15.40;99.90;;;;;;5035789;28;20032;-88
2022/10/14 10:38:19;;;;;;;15.38;13.15;;;15.50;99.90;;;;;;5053067;28;20025;-87
2022/10/14 10:41:05;;;;;;;;;;;15.50;99.90;;;;;;5035207;28;20035;-86
2022/10/14 10:43:35;;;;;;;17.83;14.55;;;15.50;99.90;;;;;;5004747;28;19943;-85
2022/10/14 10:46:36;;;;;;;18.65;14.45;;;15.50;99.90;;;;;;5056822;28;20025;-87
2022/10/14 10:49:01;;;;;;;;;;;15.50;99.90;;;;;;5016919;28;20033;-87
2022/10/14 10:51:44;;;;;;;15.85;12.48;;;15.60;99.90;;;;;;5036390;28;19912;-87
2022/10/14 10:54:42;;;;;;;15.73;13.70;;;15.60;99.90;;;;;;5030174;28;20028;-87
2022/10/14 10:57:34;;;;;;;14.82;12.35;;;15.60;99.90;;;;;;5018146;28;20041;-87
2022/10/14 11:00:13;;;;;;;14.23;12.23;;;15.60;99.90;;;;;;5039008;28;20025;-86
2022/10/14 11:02:54;;;;;;;15.48;13.05;;;15.60;99.90;;;;;;5010171;28;20025;-86
2022/10/14 11:05:28;;;;;;;17.00;12.10;;;15.70;99.90;;;;;;5037492;28;20030;-87
2022/10/14 11:14:46;;;;;;;12.75;10.55;;;15.80;99.90;;;;;;5055049;28;20035;-87
2022/10/14 11:17:21;;;;;;;;;;;15.70;99.90;;;;;;5055693;28;20028;-87
2022/10/14 11:20:35;;;;;;;13.88;11.25;;;15.70;99.90;;;;;;5026702;28;20383;-89
2022/10/14 11:23:05;;;;;;;15.43;10.52;;;15.70;99.90;;;;;;4995156;28;20530;-86
2022/10/14 11:25:52;;;;;;;14.75;10.18;;;15.70;99.90;;;;;;5025721;28;20070;-86
2022/10/14 11:28:34;;;;;;;14.48;11.73;;;15.80;99.90;;;;;;5048134;28;20077;-86
2022/10/14 11:31:16;;;;;;;14.30;11.10;;;15.80;99.90;;;;;;5053783;28;20064;-86
2022/10/14 11:34:02;;;;;;;14.05;12.10;;;15.80;99.90;;;;;;5054519;28;20025;-86
2022/10/14 11:36:43;;;;;;;13.25;11.70;;;15.80;99.90;;;;;;5028946;28;20021;-86
2022/10/14 11:39:30;;;;;;;14.02;11.80;;;15.80;99.90;;;;;;5051097;28;20057;-87
2022/10/14 11:42:26;;;;;;;13.73;11.75;;;15.90;99.90;;;;;;5055163;28;20104;-87
2022/10/14 11:45:23;;;;;;;17.60;12.52;;;15.90;99.90;;;;;;5031031;28;20020;-86
2022/10/14 11:47:51;;;;;;;13.63;12.15;;;15.90;99.90;;;;;;5053520;28;20024;-85
2022/10/14 11:50:26;;;;;;;17.38;13.30;;;15.80;99.90;;;;;;5054174;28;20023;-87
2022/10/14 11:53:12;;;;;;;14.90;10.85;;;15.80;99.90;;;;;;5049502;28;20045;-86
2022/10/14 11:55:59;;;;;;;13.77;11.98;;;15.80;99.90;;;;;;5052279;28;20029;-87
2022/10/14 11:58:27;;;;;;;13.68;11.95;;;15.80;99.90;;;;;;5053771;28;20045;-86
2022/10/14 12:00:55;;;;;;;15.60;12.13;;;15.90;99.90;;;;;;5052839;28;20025;-85
2022/10/14 12:03:46;;;;;;;16.17;12.35;;;15.80;99.90;;;;;;5050136;28;20033;-85
2022/10/14 12:06:21;;;;;;;13.23;11.35;;;15.90;99.90;;;;;;5027634;28;20032;-84
2022/10/14 12:08:59;;;;;;;16.00;12.70;;;15.80;99.90;;;;;;5038906;28;20036;-83
2022/10/14 12:11:56;;;;;;;16.38;12.40;;;15.90;99.90;;;;;;5037816;28;20021;-86
2022/10/14 12:14:32;;;;;;;14.52;11.07;;;15.90;99.90;;;;;;5038740;28;20017;-85
2022/10/14 12:17:00;;;;;;;13.30;10.85;;;15.90;99.90;;;;;;5038318;28;20056;-86
2022/10/14 12:19:28;;;;;;;14.25;10.38;;;15.90;99.90;;;;;;5056522;28;20025;-85
2022/10/14 12:22:19;;;;;;;14.85;10.05;;;15.90;99.90;;;;;;5037460;28;20025;-84
2022/10/14 12:24:50;;;;;;;13.07;10.25;;;15.90;99.90;;;;;;5056791;28;20025;-83
2022/10/14 12:27:18;;;;;;;13.05;9.30;;;15.90;99.90;;;;;;5037518;28;20024;-84
2022/10/14 12:29:46;;;;;;;10.77;8.98;;;15.90;99.90;;;;;;5038345;28;20044;-84
2022/10/14 12:32:15;;;;;;;14.82;10.07;;;16.00;99.90;;;;;;5044794;28;20033;-84
2022/10/14 12:34:42;;;;;;;13.35;10.02;;;15.90;99.90;;;;;;5056195;28;20025;-83
2022/10/14 12:37:48;;;;;;;11.23;8.73;;;16.00;99.90;;;;;;5037654;28;20029;-83
2022/10/14 12:40:14;;;;;;;12.32;8.88;;;15.90;99.90;;;;;;5043447;28;20028;-84
2022/10/14 12:42:42;;;;;;;10.77;7.78;;;16.00;99.90;;;;;;5055028;28;20378;-83
2022/10/14 12:45:16;;;;;;;10.88;9.07;;;16.00;99.90;;;;;;5051449;28;20029;-84
2022/10/14 12:47:42;;;;;;;14.23;8.05;;;16.00;99.90;;;;;;5056185;28;20123;-84
2022/10/14 12:50:14;;;;;;;12.63;8.98;;;16.00;99.90;;;;;;5036916;28;20467;-84
2022/10/14 12:52:47;;;;;;;9.52;7.63;;;16.00;99.90;;;;;;5044258;28;20025;-84
2022/10/14 12:55:22;;;;;;;9.55;6.95;;;16.00;99.90;;;;;;5054842;28;20539;-84